Time;durP1;ratioP1;P1;durP2;ratioP2;P2;SDS_P1;SDS_P2;PMS_P1;PMS_P2;Temp;Humidity;BMP_temperature;BMP_pressure;BME280_temperature;BME280_humidity;BME280_pressure;Samples;Min_cycle;Max_cycle;Signal;HPM_P1;HPM_P2
2021/01/19 00:00:36;;;;;;;0.40;0.30;;;;;;;3.51;100.00;100977.13;5074704;28;20445;-70
2021/01/19 00:03:04;;;;;;;1.63;0.57;;;;;;;3.52;100.00;100973.38;5075589;28;20437;-71
2021/01/19 00:05:30;;;;;;;0.90;0.73;;;;;;;3.49;100.00;100965.84;5075443;28;20461;-70
2021/01/19 00:07:57;;;;;;;0.60;0.40;;;;;;;3.49;100.00;100971.19;5075700;28;20437;-70
2021/01/19 00:10:23;;;;;;;9.20;1.03;;;;;;;3.53;100.00;100975.00;5075638;28;20445;-69
2021/01/19 00:12:49;;;;;;;7.93;1.83;;;;;;;3.54;100.00;100965.91;5075255;28;20437;-70
2021/01/19 00:15:15;;;;;;;1.53;0.67;;;;;;;3.58;100.00;100969.72;5075403;28;20477;-69
2021/01/19 00:17:42;;;;;;;1.10;0.70;;;;;;;3.57;100.00;100970.78;5075642;28;20473;-70
2021/01/19 00:20:10;;;;;;;1.50;1.03;;;;;;;3.51;100.00;100966.41;5075173;28;20803;-69
2021/01/19 00:22:36;;;;;;;0.80;0.80;;;;;;;3.51;100.00;100971.78;5075420;28;20440;-71
2021/01/19 00:25:03;;;;;;;1.73;1.13;;;;;;;3.54;100.00;100960.53;5075400;28;20449;-70
2021/01/19 00:27:30;;;;;;;1.27;0.97;;;;;;;3.56;100.00;100969.16;5075249;28;20492;-70
2021/01/19 00:29:56;;;;;;;6.37;1.93;;;;;;;3.56;100.00;100955.78;5074973;28;20983;-69
2021/01/19 00:32:22;;;;;;;0.43;0.30;;;;;;;3.53;100.00;100948.22;5075228;28;20528;-70
2021/01/19 00:34:48;;;;;;;0.50;0.50;;;;;;;3.54;100.00;100950.66;5075136;28;20514;-70
2021/01/19 00:37:15;;;;;;;1.07;0.70;;;;;;;3.54;100.00;100949.84;5075171;28;20493;-70
2021/01/19 00:39:41;;;;;;;0.40;0.40;;;;;;;3.58;100.00;100956.31;5075067;28;20441;-69
2021/01/19 00:42:07;;;;;;;1.17;0.47;;;;;;;3.57;100.00;100957.38;5075001;28;20506;-70
2021/01/19 00:44:33;;;;;;;1.37;1.27;;;;;;;3.56;100.00;100947.75;5075045;28;20808;-71
2021/01/19 00:47:00;;;;;;;0.50;0.50;;;;;;;3.60;100.00;100956.91;5074954;28;20491;-69
2021/01/19 00:49:26;;;;;;;5.10;0.97;;;;;;;3.61;100.00;100961.19;5074939;28;20483;-69
2021/01/19 00:51:52;;;;;;;1.93;1.80;;;;;;;3.61;100.00;100955.03;5074827;28;20473;-70
2021/01/19 00:54:19;;;;;;;1.57;1.10;;;;;;;3.59;100.00;100957.16;5074602;28;20445;-70
2021/01/19 00:56:45;;;;;;;3.37;1.83;;;;;;;3.50;100.00;100954.09;5074318;28;20994;-69
2021/01/19 00:59:12;;;;;;;0.60;0.60;;;;;;;3.47;100.00;100954.56;5074702;28;20452;-68
2021/01/19 01:01:45;;;;;;;0.40;0.30;;;;;;;3.48;100.00;100951.63;5074597;28;20524;-69
2021/01/19 01:04:11;;;;;;;2.23;1.17;;;;;;;3.49;100.00;100944.41;5074632;28;20445;-69
2021/01/19 01:06:37;;;;;;;1.57;0.70;;;;;;;3.51;100.00;100951.16;5074033;28;20497;-70
2021/01/19 01:09:04;;;;;;;0.67;0.67;;;;;;;3.50;100.00;100943.38;5074411;28;20441;-70
2021/01/19 01:11:37;;;;;;;1.73;1.60;;;;;;;3.45;100.00;100945.94;5074419;28;20434;-69
2021/01/19 01:14:04;;;;;;;1.27;1.03;;;;;;;3.48;100.00;100945.47;5074639;28;20458;-69
2021/01/19 01:16:30;;;;;;;0.60;0.50;;;;;;;3.49;100.00;100945.22;5074223;28;20488;-69
2021/01/19 01:18:57;;;;;;;0.40;0.30;;;;;;;3.47;100.00;100952.69;5074035;28;20861;-70
2021/01/19 01:21:23;;;;;;;0.50;0.40;;;;;;;3.52;100.00;100935.91;5074319;28;20441;-70
2021/01/19 01:23:49;;;;;;;0.77;0.77;;;;;;;3.45;100.00;100940.59;5073986;28;21173;-70
2021/01/19 01:26:18;;;;;;;0.40;0.30;;;;;;;3.46;100.00;100934.22;5074122;28;20460;-69
2021/01/19 01:28:45;;;;;;;0.60;0.60;;;;;;;3.49;100.00;100936.38;5073863;28;20949;-70
2021/01/19 01:31:11;;;;;;;2.00;0.97;;;;;;;3.51;100.00;100932.41;5074163;28;20445;-70
2021/01/19 01:33:38;;;;;;;5.70;1.33;;;;;;;3.50;100.00;100935.34;5073721;28;20920;-70
2021/01/19 01:36:05;;;;;;;1.10;1.00;;;;;;;3.46;100.00;100943.03;5073937;28;20528;-70
2021/01/19 01:38:31;;;;;;;0.40;0.30;;;;;;;3.47;100.00;100943.84;5073903;28;20498;-70
2021/01/19 01:40:57;;;;;;;0.60;0.57;;;;;;;3.53;100.00;100945.53;5073893;28;20448;-70
2021/01/19 01:43:23;;;;;;;0.40;0.30;;;;;;;3.50;100.00;100940.69;5073881;28;20465;-70
2021/01/19 01:45:50;;;;;;;1.53;1.13;;;;;;;3.53;100.00;100930.28;5073636;28;20489;-70
2021/01/19 01:48:17;;;;;;;0.90;0.53;;;;;;;3.56;100.00;100920.16;5073730;28;20469;-70
2021/01/19 01:50:52;;;;;;;2.80;2.60;;;;;;;3.56;100.00;100910.25;5074000;28;20490;-69
2021/01/19 01:53:18;;;;;;;0.57;0.40;;;;;;;3.54;100.00;100920.38;5073698;28;20882;-70
2021/01/19 01:55:45;;;;;;;1.80;1.70;;;;;;;3.55;100.00;100914.00;5073162;28;20544;-69
2021/01/19 01:58:11;;;;;;;1.53;1.27;;;;;;;3.53;100.00;100910.72;5073301;28;20951;-70
2021/01/19 02:00:37;;;;;;;2.00;1.37;;;;;;;3.56;100.00;100914.78;5073528;28;20445;-69
2021/01/19 02:03:05;;;;;;;0.93;0.93;;;;;;;3.52;100.00;100915.28;5073450;28;20444;-70
2021/01/19 02:05:31;;;;;;;1.47;1.37;;;;;;;3.52;100.00;100909.91;5073019;28;20951;-69
2021/01/19 02:08:09;;;;;;;1.60;0.63;;;;;;;3.49;100.00;100910.41;5073497;28;20452;-70
2021/01/19 02:10:59;;;;;;;0.40;0.30;;;;;;;3.48;100.00;100913.34;5073434;28;20982;-69
2021/01/19 02:13:40;;;;;;;0.40;0.20;;;;;;;3.51;100.00;100904.81;5072906;28;20488;-70
2021/01/19 02:16:16;;;;;;;0.70;0.70;;;;;;;3.51;100.00;100908.31;5072856;28;20477;-68
2021/01/19 02:18:59;;;;;;;0.40;0.30;;;;;;;3.44;100.00;100906.84;5073299;28;20504;-70
2021/01/19 02:22:05;;;;;;;4.40;1.33;;;;;;;3.50;100.00;100911.25;5072986;28;20957;-69
2021/01/19 02:24:35;;;;;;;2.03;1.90;;;;;;;3.49;100.00;100906.91;5071023;28;20457;-69
2021/01/19 02:27:36;;;;;;;2.77;1.17;;;;;;;3.45;100.00;100909.31;5072902;28;20468;-70
2021/01/19 02:30:11;;;;;;;0.40;0.30;;;;;;;3.46;100.00;100899.41;5067432;28;20512;-68
2021/01/19 02:32:45;;;;;;;1.23;0.87;;;;;;;3.46;100.00;100904.75;5073116;28;20421;-69
2021/01/19 02:35:15;;;;;;;1.73;1.43;;;;;;;3.51;100.00;100907.50;5072961;28;20472;-69
2021/01/19 02:37:50;;;;;;;3.33;0.70;;;;;;;3.50;100.00;100900.53;5072797;28;20884;-68
2021/01/19 02:40:18;;;;;;;0.80;0.70;;;;;;;3.54;100.00;100901.63;5073198;28;20461;-68
2021/01/19 02:42:50;;;;;;;3.43;0.83;;;;;;;3.53;100.00;100892.78;5073080;28;20601;-70
2021/01/19 02:45:19;;;;;;;0.50;0.50;;;;;;;3.46;100.00;100889.50;5072889;28;20417;-72
2021/01/19 02:47:46;;;;;;;0.40;0.23;;;;;;;3.56;100.00;100894.19;5072784;28;20441;-70
2021/01/19 02:50:13;;;;;;;0.77;0.77;;;;;;;3.53;100.00;100886.63;5073075;28;20445;-71
2021/01/19 02:52:41;;;;;;;3.70;0.93;;;;;;;3.55;100.00;100895.25;5073033;28;20446;-70
2021/01/19 02:55:08;;;;;;;0.53;0.40;;;;;;;3.60;100.00;100891.81;5072526;28;20477;-69
2021/01/19 02:57:46;;;;;;;1.23;0.70;;;;;;;3.60;100.00;100891.81;5072892;28;20991;-70
2021/01/19 03:00:18;;;;;;;0.50;0.40;;;;;;;3.59;100.00;100895.56;5072934;28;20452;-69
2021/01/19 03:02:47;;;;;;;1.43;0.57;;;;;;;3.60;100.00;100887.28;5072582;28;20456;-70
2021/01/19 03:05:15;;;;;;;0.57;0.57;;;;;;;3.64;100.00;100890.28;5072454;28;20461;-70
2021/01/19 03:07:44;;;;;;;0.60;0.50;;;;;;;3.62;100.00;100887.00;5072885;28;20534;-70
2021/01/19 03:10:12;;;;;;;2.60;1.50;;;;;;;3.62;100.00;100890.50;5072820;28;20445;-69
2021/01/19 03:12:41;;;;;;;7.93;2.80;;;;;;;3.64;100.00;100887.59;5072461;28;20441;-69
2021/01/19 03:15:09;;;;;;;0.60;0.50;;;;;;;3.60;100.00;100876.56;5072727;28;20586;-70
2021/01/19 03:17:36;;;;;;;0.40;0.30;;;;;;;3.61;100.00;100880.84;5072690;28;20458;-70
2021/01/19 03:20:05;;;;;;;0.87;0.80;;;;;;;3.56;100.00;100878.09;5072719;28;20449;-69
2021/01/19 03:22:31;;;;;;;0.83;0.80;;;;;;;3.57;100.00;100879.72;5072499;28;20931;-71
2021/01/19 03:24:57;;;;;;;0.53;0.47;;;;;;;3.59;100.00;100877.63;5072756;28;20800;-69
2021/01/19 03:27:23;;;;;;;0.40;0.30;;;;;;;3.60;100.00;100873.88;5072586;28;20535;-70
2021/01/19 03:29:49;;;;;;;1.53;0.63;;;;;;;3.58;100.00;100867.13;5072682;28;20445;-69
2021/01/19 03:32:15;;;;;;;0.50;0.50;;;;;;;3.63;100.00;100872.56;5072643;28;20507;-69
2021/01/19 03:34:42;;;;;;;1.00;1.00;;;;;;;3.64;100.00;100869.66;5072507;28;20473;-69
2021/01/19 03:37:09;;;;;;;0.40;0.30;;;;;;;3.61;100.00;100867.47;5074707;28;20493;-70
2021/01/19 03:39:35;;;;;;;0.40;0.30;;;;;;;3.63;100.00;100873.41;5076238;28;20441;-70
2021/01/19 03:42:01;;;;;;;2.73;2.53;;;;;;;3.65;100.00;100870.47;5075882;28;20441;-69
2021/01/19 03:44:27;;;;;;;0.67;0.60;;;;;;;3.64;100.00;100868.84;5076114;28;20477;-70
2021/01/19 03:46:53;;;;;;;1.20;0.87;;;;;;;3.63;100.00;100867.19;5075847;28;20460;-70
2021/01/19 03:49:19;;;;;;;2.40;0.93;;;;;;;3.62;100.00;100852.19;5075770;28;20484;-70
2021/01/19 03:51:46;;;;;;;0.57;0.40;;;;;;;3.62;100.00;100861.03;5076039;28;20441;-70
2021/01/19 03:54:13;;;;;;;0.90;0.80;;;;;;;3.62;100.00;100855.69;5075680;28;20480;-70
2021/01/19 03:56:39;;;;;;;0.87;0.63;;;;;;;3.61;100.00;100854.06;5075797;28;20519;-70
2021/01/19 03:59:05;;;;;;;0.50;0.50;;;;;;;3.63;100.00;100849.28;5075966;28;20870;-70
2021/01/19 04:01:31;;;;;;;1.90;1.07;;;;;;;3.61;100.00;100853.25;5075788;28;20476;-70
2021/01/19 04:03:58;;;;;;;0.87;0.63;;;;;;;3.65;100.00;100849.84;5075867;28;20447;-70
2021/01/19 04:06:24;;;;;;;0.57;0.57;;;;;;;3.67;100.00;100846.91;5075290;28;20483;-70
2021/01/19 04:08:50;;;;;;;0.70;0.57;;;;;;;3.62;100.00;100834.25;5075354;28;20938;-70
2021/01/19 04:11:18;;;;;;;0.40;0.30;;;;;;;3.64;100.00;100834.03;5075429;28;20437;-70
2021/01/19 04:13:44;;;;;;;2.40;0.60;;;;;;;3.66;100.00;100839.94;5075314;28;20812;-71
2021/01/19 04:16:11;;;;;;;0.40;0.30;;;;;;;3.67;100.00;100834.31;5075468;28;20481;-69
2021/01/19 04:18:37;;;;;;;0.83;0.80;;;;;;;3.68;100.00;100835.16;5075329;28;20473;-70
2021/01/19 04:21:03;;;;;;;1.07;0.97;;;;;;;3.69;100.00;100834.09;5075100;28;20884;-69
2021/01/19 04:23:29;;;;;;;0.60;0.57;;;;;;;3.67;100.00;100837.00;5075159;28;20436;-70
2021/01/19 04:25:56;;;;;;;0.90;0.57;;;;;;;3.68;100.00;100838.63;5075093;28;20465;-69
2021/01/19 04:28:23;;;;;;;1.67;0.63;;;;;;;3.70;100.00;100839.19;5075009;28;20950;-70
2021/01/19 04:30:49;;;;;;;1.17;1.10;;;;;;;3.69;100.00;100837.56;5075041;28;20441;-71
2021/01/19 04:33:15;;;;;;;0.77;0.77;;;;;;;3.71;100.00;100838.13;5075232;28;20457;-70
2021/01/19 04:35:42;;;;;;;4.60;1.27;;;;;;;3.72;100.00;100833.59;5075064;28;20481;-70
2021/01/19 04:38:08;;;;;;;0.60;0.50;;;;;;;3.76;100.00;100827.50;5075166;28;20964;-69
2021/01/19 04:40:35;;;;;;;3.70;1.33;;;;;;;3.73;100.00;100833.34;5074747;28;20476;-69
2021/01/19 04:43:02;;;;;;;0.40;0.30;;;;;;;3.72;100.00;100834.41;5075126;28;20437;-69
2021/01/19 04:45:31;;;;;;;2.80;1.07;;;;;;;3.72;100.00;100823.69;5074882;28;20433;-70
2021/01/19 04:47:57;;;;;;;0.40;0.30;;;;;;;3.75;100.00;100825.03;5074175;28;20939;-69
2021/01/19 04:50:23;;;;;;;0.73;0.43;;;;;;;3.72;100.00;100828.25;5074637;28;20452;-70
2021/01/19 04:52:53;;;;;;;0.67;0.67;;;;;;;3.69;100.00;100821.50;5074870;28;20823;-69
2021/01/19 04:55:24;;;;;;;1.13;0.87;;;;;;;3.73;100.00;100825.31;5074647;28;20477;-69
2021/01/19 04:57:58;;;;;;;3.20;1.33;;;;;;;3.71;100.00;100827.41;5075239;28;20426;-68
2021/01/19 05:00:29;;;;;;;1.80;0.77;;;;;;;3.69;100.00;100829.53;5074719;28;20440;-68
2021/01/19 05:03:18;;;;;;;0.50;0.50;;;;;;;3.68;100.00;100833.28;5074754;28;20500;-69
2021/01/19 05:06:37;;;;;;;0.53;0.53;;;;;;;3.68;100.00;100824.44;5074155;28;20481;-68
2021/01/19 05:09:21;;;;;;;0.50;0.40;;;;;;;3.64;100.00;100817.97;5016565;28;20853;-68
2021/01/19 05:11:50;;;;;;;0.70;0.53;;;;;;;3.65;100.00;100808.84;5074820;28;20464;-69
2021/01/19 05:14:19;;;;;;;2.50;0.83;;;;;;;3.67;100.00;100804.03;5074097;28;20437;-69
2021/01/19 05:16:48;;;;;;;0.40;0.30;;;;;;;3.68;100.00;100790.41;5073947;28;20538;-69
2021/01/19 05:19:16;;;;;;;1.67;1.57;;;;;;;3.65;100.00;100790.91;5074301;28;20434;-68
2021/01/19 05:21:45;;;;;;;0.50;0.50;;;;;;;3.61;100.00;100779.06;5074305;28;20853;-68
2021/01/19 05:24:11;;;;;;;1.27;0.70;;;;;;;3.57;100.00;100780.63;5074245;28;20491;-69
2021/01/19 05:26:41;;;;;;;1.50;0.87;;;;;;;3.57;100.00;100769.13;5074146;28;20485;-69
2021/01/19 05:29:07;;;;;;;0.50;0.50;;;;;;;3.55;100.00;100766.69;5074182;28;20532;-69
2021/01/19 05:31:33;;;;;;;0.40;0.40;;;;;;;3.58;100.00;100763.50;5074064;28;20452;-69
2021/01/19 05:34:03;;;;;;;0.87;0.47;;;;;;;3.58;100.00;100757.34;5074022;28;20437;-69
2021/01/19 05:36:39;;;;;;;0.40;0.30;;;;;;;3.61;100.00;100763.00;5073771;28;20516;-69
2021/01/19 05:39:06;;;;;;;0.40;0.30;;;;;;;3.61;100.00;100768.38;5073972;28;20958;-69
2021/01/19 05:41:37;;;;;;;0.57;0.50;;;;;;;3.61;100.00;100764.88;5073551;28;20481;-69
2021/01/19 05:44:15;;;;;;;0.40;0.30;;;;;;;3.60;100.00;100758.72;5073877;28;20430;-68
2021/01/19 05:46:43;;;;;;;2.07;1.13;;;;;;;3.62;100.00;100755.78;5073766;28;20453;-69
2021/01/19 05:49:14;;;;;;;0.80;0.50;;;;;;;3.63;100.00;100754.72;5073729;28;20452;-68
2021/01/19 05:51:43;;;;;;;0.53;0.53;;;;;;;3.60;100.00;100753.38;5073798;28;20472;-69
2021/01/19 05:54:11;;;;;;;0.40;0.30;;;;;;;3.63;100.00;100755.56;5073652;28;20441;-69
2021/01/19 05:56:38;;;;;;;0.70;0.60;;;;;;;3.61;100.00;100754.97;5073442;28;20488;-69
2021/01/19 05:59:05;;;;;;;0.40;0.30;;;;;;;3.61;100.00;100752.28;5072499;28;20861;-69
2021/01/19 06:01:33;;;;;;;0.40;0.30;;;;;;;3.61;100.00;100751.50;5074234;28;20839;-68
2021/01/19 06:04:01;;;;;;;2.17;0.90;;;;;;;3.57;100.00;100745.00;5073487;28;20516;-69
2021/01/19 06:06:29;;;;;;;0.40;0.33;;;;;;;3.56;100.00;100749.56;5073104;28;20484;-69
2021/01/19 06:09:02;;;;;;;0.40;0.30;;;;;;;3.53;100.00;100742.03;5073462;28;20815;-69
2021/01/19 06:11:29;;;;;;;0.40;0.20;;;;;;;3.49;100.00;100735.53;5073444;28;20814;-70
2021/01/19 06:13:56;;;;;;;0.50;0.37;;;;;;;3.51;100.00;100730.75;5073712;28;20441;-76
2021/01/19 06:16:23;;;;;;;0.40;0.30;;;;;;;3.55;100.00;100729.22;5073298;28;20487;-70
2021/01/19 06:18:50;;;;;;;0.60;0.40;;;;;;;3.54;100.00;100723.03;5073252;28;20486;-70
2021/01/19 06:21:27;;;;;;;0.50;0.40;;;;;;;3.58;100.00;100714.50;5072971;28;20452;-70
2021/01/19 06:23:53;;;;;;;0.50;0.30;;;;;;;3.57;100.00;100713.69;5072919;28;20835;-70
2021/01/19 06:26:20;;;;;;;1.13;1.03;;;;;;;3.58;100.00;100714.50;5073214;28;20515;-70
2021/01/19 06:28:46;;;;;;;3.63;0.83;;;;;;;3.53;100.00;100713.38;5073297;28;20445;-69
2021/01/19 06:31:13;;;;;;;0.40;0.30;;;;;;;3.52;100.00;100702.91;5073232;28;20445;-69
2021/01/19 06:33:42;;;;;;;1.27;0.97;;;;;;;3.56;100.00;100697.88;5073227;28;20445;-70
2021/01/19 06:36:09;;;;;;;0.40;0.30;;;;;;;3.60;100.00;100694.44;5072767;28;20520;-70
2021/01/19 06:38:35;;;;;;;0.40;0.30;;;;;;;3.59;100.00;100695.50;5073095;28;20471;-69
2021/01/19 06:41:02;;;;;;;2.33;2.00;;;;;;;3.58;100.00;100688.50;5073091;28;20819;-72
2021/01/19 06:43:35;;;;;;;2.43;1.17;;;;;;;3.60;100.00;100681.06;5072736;28;20871;-70
2021/01/19 06:46:07;;;;;;;1.83;1.33;;;;;;;3.57;100.00;100676.19;5072832;28;20461;-69
2021/01/19 06:48:35;;;;;;;0.40;0.30;;;;;;;3.54;100.00;100674.00;5053007;28;20491;-70
2021/01/19 06:51:06;;;;;;;0.40;0.30;;;;;;;3.48;100.00;100672.34;5052963;28;20491;-69
2021/01/19 06:53:37;;;;;;;0.40;0.30;;;;;;;3.51;100.00;100666.50;5052884;28;20462;-70
2021/01/19 06:56:12;;;;;;;0.40;0.30;;;;;;;3.49;100.00;100663.25;5052782;28;20501;-69
2021/01/19 06:58:57;;;;;;;1.83;0.70;;;;;;;3.46;100.00;100653.06;5052661;28;20487;-69
2021/01/19 07:01:25;;;;;;;0.40;0.30;;;;;;;3.49;100.00;100657.88;5052934;28;20476;-70
2021/01/19 07:04:03;;;;;;;0.60;0.60;;;;;;;3.47;100.00;100649.31;5052887;28;20481;-69
2021/01/19 07:06:58;;;;;;;1.03;0.80;;;;;;;3.46;100.00;100642.34;5052481;28;20859;-70
2021/01/19 07:09:58;;;;;;;0.50;0.50;;;;;;;3.46;100.00;100642.34;5056213;28;20433;-68
2021/01/19 07:12:57;;;;;;;0.57;0.57;;;;;;;3.49;100.00;100636.47;5076446;28;20970;-69
2021/01/19 07:15:52;;;;;;;0.53;0.53;;;;;;;3.54;100.00;100626.63;5076648;28;20481;-69
2021/01/19 07:18:24;;;;;;;0.70;0.47;;;;;;;3.69;100.00;100633.19;5076423;28;20433;-69
2021/01/19 07:21:03;;;;;;;0.50;0.50;;;;;;;3.61;100.00;100629.09;5076641;28;20433;-69
2021/01/19 07:23:55;;;;;;;1.53;1.43;;;;;;;3.61;100.00;100629.09;5076592;28;20430;-70
2021/01/19 07:26:23;;;;;;;0.40;0.30;;;;;;;3.66;100.00;100625.66;5076425;28;20460;-70
2021/01/19 07:28:50;;;;;;;1.07;0.97;;;;;;;3.65;100.00;100616.81;5076486;28;20873;-70
2021/01/19 07:31:19;;;;;;;0.90;0.40;;;;;;;3.73;100.00;100616.38;5076083;28;20985;-70
2021/01/19 07:33:48;;;;;;;2.50;1.13;;;;;;;3.70;100.00;100606.16;5076436;28;20487;-69
2021/01/19 07:36:15;;;;;;;0.40;0.30;;;;;;;3.71;100.00;100610.44;5075873;28;20520;-69
2021/01/19 07:38:41;;;;;;;0.50;0.50;;;;;;;3.71;100.00;100601.59;5075960;28;20823;-70
2021/01/19 07:41:08;;;;;;;0.40;0.30;;;;;;;3.80;100.00;100610.78;5076263;28;20494;-69
2021/01/19 07:43:36;;;;;;;0.97;0.50;;;;;;;3.74;100.00;100596.53;5075953;28;20939;-69
2021/01/19 07:46:02;;;;;;;0.80;0.80;;;;;;;3.78;100.00;100603.00;5075812;28;20998;-68
2021/01/19 07:48:31;;;;;;;0.40;0.30;;;;;;;3.83;100.00;100596.88;5076123;28;20456;-69
2021/01/19 07:50:58;;;;;;;0.70;0.50;;;;;;;3.86;100.00;100598.25;5075805;28;20959;-69
2021/01/19 07:53:24;;;;;;;0.40;0.27;;;;;;;3.84;100.00;100589.66;5075772;28;20469;-69
2021/01/19 07:55:50;;;;;;;0.40;0.30;;;;;;;3.84;100.00;100587.78;5075884;28;20509;-70
2021/01/19 07:58:18;;;;;;;0.57;0.50;;;;;;;3.87;100.00;100579.22;5075973;28;20445;-69
2021/01/19 08:00:47;;;;;;;0.60;0.60;;;;;;;4.07;100.00;100583.91;5075915;28;20448;-68
2021/01/19 08:03:13;;;;;;;2.70;0.97;;;;;;;4.10;100.00;100578.06;5075262;28;21028;-69
2021/01/19 08:05:40;;;;;;;0.40;0.30;;;;;;;4.12;100.00;100575.94;5075581;28;20480;-68
2021/01/19 08:08:15;;;;;;;1.57;1.47;;;;;;;4.06;100.00;100571.59;5074324;28;21012;-69
2021/01/19 08:10:41;;;;;;;6.73;1.30;;;;;;;4.00;100.00;100578.00;5075615;28;20440;-69
2021/01/19 08:13:17;;;;;;;0.50;0.40;;;;;;;4.08;100.00;100579.41;5075405;28;20437;-68
2021/01/19 08:15:47;;;;;;;0.40;0.27;;;;;;;4.11;100.00;100574.28;5075528;28;20484;-68
2021/01/19 08:18:16;;;;;;;0.80;0.70;;;;;;;4.15;100.00;100577.28;5075718;28;20445;-69
2021/01/19 08:20:45;;;;;;;0.40;0.30;;;;;;;4.13;100.00;100566.81;5075259;28;20463;-68
2021/01/19 08:23:16;;;;;;;0.40;0.30;;;;;;;4.16;100.00;100560.13;5074650;28;20459;-69
2021/01/19 08:25:42;;;;;;;0.40;0.20;;;;;;;4.18;100.00;100564.16;5075324;28;20482;-69
2021/01/19 08:28:09;;;;;;;9.03;1.50;;;;;;;4.25;100.00;100554.03;5075429;28;20446;-68
2021/01/19 08:30:38;;;;;;;1.20;1.17;;;;;;;4.26;99.74;100547.59;5075464;28;20464;-69
2021/01/19 08:33:05;;;;;;;0.50;0.40;;;;;;;4.28;99.79;100550.00;5075352;28;20526;-69
2021/01/19 08:35:31;;;;;;;0.97;0.57;;;;;;;4.23;99.49;100548.13;5074674;28;20493;-69
2021/01/19 08:38:00;;;;;;;0.77;0.57;;;;;;;4.38;99.68;100549.25;5075222;28;20457;-69
2021/01/19 08:40:28;;;;;;;0.40;0.20;;;;;;;4.37;98.60;100539.59;5074785;28;20566;-69
2021/01/19 08:42:55;;;;;;;0.50;0.50;;;;;;;4.29;98.51;100539.06;5075208;28;20621;-69
2021/01/19 08:45:27;;;;;;;0.60;0.57;;;;;;;4.30;99.01;100537.16;5074748;28;20446;-69
2021/01/19 08:47:56;;;;;;;0.40;0.30;;;;;;;4.35;98.34;100536.38;5074714;28;20787;-68
2021/01/19 08:50:23;;;;;;;0.40;0.30;;;;;;;4.40;98.74;100531.84;5073644;28;20449;-70
2021/01/19 08:52:51;;;;;;;0.50;0.50;;;;;;;4.46;98.59;100524.63;5074623;28;20465;-69
2021/01/19 08:55:19;;;;;;;0.50;0.40;;;;;;;4.44;97.95;100524.09;5074699;28;20448;-70
2021/01/19 08:57:53;;;;;;;0.40;0.30;;;;;;;4.46;98.56;100512.03;5074754;28;20499;-69
2021/01/19 09:00:24;;;;;;;1.97;0.87;;;;;;;4.38;97.91;100509.03;5074442;28;20421;-69
2021/01/19 09:02:52;;;;;;;0.50;0.47;;;;;;;4.41;98.65;100508.53;5074438;28;20452;-69
2021/01/19 09:05:23;;;;;;;0.40;0.30;;;;;;;4.45;98.61;100498.88;5074060;28;20464;-71
2021/01/19 09:07:49;;;;;;;0.40;0.40;;;;;;;4.49;98.47;100499.97;5074264;28;20464;-68
2021/01/19 09:10:21;;;;;;;1.27;0.83;;;;;;;4.48;97.56;100495.69;5074415;28;20472;-69
2021/01/19 09:12:47;;;;;;;0.40;0.30;;;;;;;4.42;97.77;100497.53;5074544;28;20430;-69
2021/01/19 09:15:15;;;;;;;0.50;0.50;;;;;;;4.36;98.30;100495.09;5074118;28;20436;-69
2021/01/19 09:17:50;;;;;;;6.33;1.00;;;;;;;4.34;98.53;100481.13;5073915;28;20461;-68
2021/01/19 09:20:17;;;;;;;1.03;0.83;;;;;;;4.35;99.08;100474.72;5074389;28;20468;-68
2021/01/19 09:22:43;;;;;;;1.43;1.03;;;;;;;4.35;99.80;100478.22;5073963;28;20934;-70
2021/01/19 09:25:11;;;;;;;1.37;0.73;;;;;;;4.38;99.65;100476.84;5074268;28;20476;-69
2021/01/19 09:27:38;;;;;;;0.40;0.30;;;;;;;4.37;99.62;100467.22;5074903;28;20457;-68
2021/01/19 09:30:15;;;;;;;0.93;0.67;;;;;;;4.40;100.00;100470.19;5074133;28;20453;-69
2021/01/19 09:32:43;;;;;;;1.37;0.83;;;;;;;4.61;99.22;100460.31;5073821;28;20483;-69
2021/01/19 09:35:11;;;;;;;0.40;0.30;;;;;;;4.50;98.11;100464.03;5074019;28;20445;-69
2021/01/19 09:37:37;;;;;;;0.90;0.73;;;;;;;4.39;98.34;100452.47;5073995;28;20857;-69
2021/01/19 09:40:04;;;;;;;0.63;0.60;;;;;;;4.41;99.22;100457.56;5074012;28;20473;-69
2021/01/19 09:42:31;;;;;;;0.40;0.30;;;;;;;4.37;98.72;100448.44;5073974;28;20567;-69
2021/01/19 09:44:59;;;;;;;0.67;0.50;;;;;;;4.35;99.56;100439.88;5073700;28;20452;-69
2021/01/19 09:47:28;;;;;;;0.73;0.70;;;;;;;4.41;99.82;100433.44;5073894;28;20493;-69
2021/01/19 09:49:54;;;;;;;1.13;0.53;;;;;;;4.47;98.33;100427.00;5073515;28;20493;-68
2021/01/19 09:52:29;;;;;;;0.43;0.40;;;;;;;4.44;98.26;100414.16;5073383;28;20493;-70
2021/01/19 09:55:06;;;;;;;0.67;0.67;;;;;;;4.47;97.91;100410.91;5073511;28;20425;-68
2021/01/19 09:57:32;;;;;;;1.53;1.43;;;;;;;4.43;98.54;100396.44;5073247;28;20520;-69
2021/01/19 09:59:59;;;;;;;0.90;0.67;;;;;;;4.39;98.33;100390.81;5073335;28;20942;-69
2021/01/19 10:02:28;;;;;;;0.83;0.83;;;;;;;4.25;98.56;100377.09;5073594;28;20442;-69
2021/01/19 10:04:59;;;;;;;0.80;0.70;;;;;;;4.36;99.25;100377.13;5073433;28;20445;-69
2021/01/19 10:07:28;;;;;;;0.50;0.50;;;;;;;4.40;99.22;100354.88;5073524;28;20461;-69
2021/01/19 10:10:05;;;;;;;0.40;0.30;;;;;;;4.36;98.53;100356.47;5073558;28;20498;-68
2021/01/19 10:12:31;;;;;;;0.40;0.30;;;;;;;4.22;98.12;100352.69;5073782;28;20425;-70
2021/01/19 10:14:57;;;;;;;0.40;0.40;;;;;;;4.27;99.25;100337.41;5073419;28;20943;-69
2021/01/19 10:17:28;;;;;;;13.00;2.70;;;;;;;4.20;98.80;100336.84;5073473;28;20535;-70
2021/01/19 10:20:05;;;;;;;1.10;0.87;;;;;;;4.16;99.48;100319.72;5074114;28;20422;-70
2021/01/19 10:22:32;;;;;;;0.40;0.30;;;;;;;4.12;98.69;100315.97;5071796;28;20511;-70
2021/01/19 10:24:59;;;;;;;0.40;0.30;;;;;;;4.06;99.10;100308.94;5072758;28;20939;-68
2021/01/19 10:27:25;;;;;;;0.47;0.37;;;;;;;4.07;99.51;100294.47;5073108;28;20496;-69
2021/01/19 10:29:52;;;;;;;0.40;0.33;;;;;;;4.18;99.66;100280.03;5072974;28;20449;-68
2021/01/19 10:32:19;;;;;;;5.40;1.47;;;;;;;4.20;99.55;100280.56;5073556;28;20494;-70
2021/01/19 10:34:48;;;;;;;0.40;0.30;;;;;;;4.11;98.22;100268.75;5073274;28;20477;-68
2021/01/19 10:37:15;;;;;;;0.83;0.50;;;;;;;4.13;98.96;100271.19;5072782;28;20990;-69
2021/01/19 10:39:48;;;;;;;0.40;0.20;;;;;;;4.14;99.24;100265.56;5073312;28;20441;-69
2021/01/19 10:42:24;;;;;;;0.70;0.40;;;;;;;4.10;98.48;100252.94;5072871;28;20506;-68
2021/01/19 10:44:55;;;;;;;0.60;0.50;;;;;;;4.06;98.74;100250.00;5074513;28;20425;-72
2021/01/19 10:47:21;;;;;;;0.40;0.30;;;;;;;4.15;99.98;100248.41;5080344;28;20530;-72
2021/01/19 10:49:48;;;;;;;1.80;1.13;;;;;;;4.23;100.00;100241.72;5080098;28;20445;-71
2021/01/19 10:52:14;;;;;;;0.73;0.60;;;;;;;4.16;99.58;100241.16;5079449;28;20461;-69
2021/01/19 10:54:40;;;;;;;0.67;0.60;;;;;;;4.11;99.43;100241.97;5079574;28;20473;-69
2021/01/19 10:57:08;;;;;;;0.60;0.50;;;;;;;3.90;99.51;100235.00;5079332;28;21020;-68
2021/01/19 10:59:36;;;;;;;0.40;0.27;;;;;;;3.83;100.00;100237.09;5079414;28;20469;-70
2021/01/19 11:02:04;;;;;;;0.60;0.57;;;;;;;3.86;100.00;100229.34;5079776;28;20445;-69
2021/01/19 11:04:30;;;;;;;0.40;0.30;;;;;;;3.83;100.00;100223.72;5079380;28;20934;-69
2021/01/19 11:06:57;;;;;;;0.40;0.30;;;;;;;3.83;100.00;100221.84;5079185;28;20495;-68
2021/01/19 11:09:23;;;;;;;0.63;0.60;;;;;;;3.76;100.00;100224.78;5079568;28;20971;-68
2021/01/19 11:11:49;;;;;;;0.40;0.30;;;;;;;3.69;100.00;100218.84;5079612;28;20799;-69
2021/01/19 11:14:16;;;;;;;0.40;0.30;;;;;;;3.64;100.00;100213.50;5079197;28;20477;-68
2021/01/19 11:16:43;;;;;;;0.40;0.30;;;;;;;3.72;100.00;100220.22;5079373;28;20520;-69
2021/01/19 11:19:11;;;;;;;3.07;0.63;;;;;;;3.58;100.00;100206.50;5079133;28;20804;-67
2021/01/19 11:21:38;;;;;;;0.40;0.30;;;;;;;3.69;100.00;100200.09;5079175;28;20977;-69
2021/01/19 11:24:07;;;;;;;0.40;0.30;;;;;;;3.55;100.00;100196.34;5079417;28;20519;-71
2021/01/19 11:26:35;;;;;;;0.40;0.30;;;;;;;3.50;100.00;100188.28;5079008;28;20453;-69
2021/01/19 11:29:02;;;;;;;0.70;0.43;;;;;;;3.35;100.00;100193.59;5079432;28;20437;-69
2021/01/19 11:31:30;;;;;;;0.50;0.43;;;;;;;3.25;100.00;100189.00;5079317;28;20490;-70
2021/01/19 11:33:57;;;;;;;0.63;0.63;;;;;;;3.23;100.00;100172.38;5079321;28;20437;-69
2021/01/19 11:36:25;;;;;;;0.63;0.60;;;;;;;3.14;100.00;100173.97;5079190;28;20485;-71